LAKE NATOMA (NIMBUS DAM) (NAT)

Elevation: 132' · AMERICAN R basin · Operator: US Bureau of Reclamation

Provisional data, subject to change.
Query executed Friday at 21:26:14   clock

Select a sensor type for a plot of data.
Note: Reservoir Flows are daily averages.

Earlier

Date RES ELE    STORAGE    RES CHG    OUTFLOW    INFLOW    SPILL    DIS PWR   
 FEET   AF   AF   CFS   CFS   CFS   CFS  
07/02/2014 123.67 8106 -250 2108 1986 0 2023
07/03/2014 123.77 8153 47 2116 2144 0 2031
07/04/2014 123.65 8097 -56 2115 2091 0 2030
07/05/2014 123.97 8247 150 2088 2168 0 2003
07/06/2014 124.10 8311 64 2078 2114 0 1993
07/07/2014 124.04 8281 -30 2110 2098 0 2019
07/08/2014 123.75 8144 -137 2108 2043 0 2013
07/09/2014 123.99 8256 112 2107 2167 0 2006
07/10/2014 124.30 8411 155 2111 2193 0 2006
07/11/2014 123.92 8223 -188 2112 2021 0 2007
07/12/2014 123.80 8167 -56 2097 2073 0 2007
07/13/2014 123.98 8252 85 2094 2140 0 2004
07/14/2014 124.30 8411 159 2100 2184 0 2010
07/15/2014 124.20 8361 -50 2096 2074 0 2006
07/16/2014 123.85 8191 -170 2093 2011 0 2003
07/17/2014 123.95 8238 47 2097 2124 0 2007
07/18/2014 123.97 8247 9 2095 2103 0 2005
07/19/2014 123.72 8129 -118 2093 2037 0 2003
07/20/2014 123.39 7974 -155 2094 2019 0 2004
07/21/2014 123.60 8073 99 2096 2149 0 2006
07/22/2014 123.99 8256 183 2060 2155 0 1970
07/23/2014 124.17 8346 90 2053 2101 0 1963
07/24/2014 124.05 8286 -60 2070 2043 0 1980
07/25/2014 124.14 8331 45 1790 1816 0 1778
07/26/2014 124.22 8371 40 1722 1746 0 1722
07/27/2014 123.92 8223 -148 1731 1660 0 1723
07/28/2014 123.52 8035 -188 1758 1666 0 1721
07/29/2014 123.90 8214 179 1544 1637 0 1489
07/30/2014 124.15 8336 122 1534 1600 0 1479
07/31/2014 123.57 8059 -277 1535 1398 0 1480
08/01/2014 -- -- -- -- -- -- --

Later | Latest

Warning! This data is preliminary and subject to revision.

Download Data Now Download Data Now | Show NAT Map | Plot NAT Data | 1 Month NAT Data | Real-Time NAT Data | NAT Info